Terminal Aerodrome Forecast
Issued by NWS Bismarck, ND

Home | Current Version | Previous Version | Text Only | Print | Product List | Glossary Off
Versions: 1 2 3 4 5 6 7 8 9 10 11 12 13 14 15 16 17 18 19 20 21

000
FTUS43 KBIS 191737
TAFBIS
TAF
KBIS 191737Z 1918/2018 VRB03KT P6SM FEW250
     FM200300 VRB03KT 2SM BR BKN060
     FM201000 VRB03KT 3SM BR BKN030=

USA.gov is the U.S. government's official web portal to all federal, state and local government web resources and services.